createdAt,value
2022-12-15T00:02:35.881Z,25.27
2022-12-15T00:05:22.574Z,25.40
2022-12-15T00:08:08.543Z,25.83
2022-12-15T00:10:54.527Z,27.90
2022-12-15T00:13:40.687Z,28.03
2022-12-15T00:16:26.576Z,28.43
2022-12-15T00:19:12.516Z,27.23
2022-12-15T00:21:58.255Z,26.83
2022-12-15T00:24:44.080Z,28.40
2022-12-15T00:27:30.034Z,29.10
2022-12-15T00:30:15.928Z,30.70
2022-12-15T00:33:01.991Z,29.67
2022-12-15T00:35:47.938Z,30.63
2022-12-15T00:38:34.053Z,30.50
2022-12-15T00:41:01.809Z,30.87
2022-12-15T00:43:30.686Z,32.40
2022-12-15T00:46:23.276Z,31.67
2022-12-15T00:48:50.722Z,30.17
2022-12-15T00:51:18.457Z,28.60
2022-12-15T00:54:04.995Z,29.33
2022-12-15T00:56:51.203Z,28.63
2022-12-15T00:59:37.277Z,29.17
2022-12-15T01:02:23.014Z,29.17
2022-12-15T01:05:08.706Z,28.97
2022-12-15T01:07:54.663Z,31.83
2022-12-15T01:10:40.684Z,32.57
2022-12-15T01:13:31.905Z,30.13
2022-12-15T01:16:17.856Z,30.77
2022-12-15T01:19:03.722Z,35.37
2022-12-15T01:21:31.823Z,29.77
2022-12-15T01:23:59.014Z,36.93
2022-12-15T01:26:26.212Z,33.40
2022-12-15T01:28:53.367Z,35.23
2022-12-15T01:31:20.606Z,30.93
2022-12-15T01:33:47.868Z,30.80
2022-12-15T01:36:15.056Z,31.70
2022-12-15T01:38:42.862Z,32.73
2022-12-15T01:41:16.654Z,32.33
2022-12-15T01:43:43.838Z,32.73
2022-12-15T01:46:17.658Z,30.13
2022-12-15T01:48:44.891Z,32.43
2022-12-15T01:51:16.842Z,32.07
2022-12-15T01:53:51.173Z,32.37
2022-12-15T01:56:20.930Z,31.93
2022-12-15T01:58:50.167Z,29.73
2022-12-15T02:01:18.062Z,33.43
2022-12-15T02:03:47.612Z,34.10
2022-12-15T02:06:19.196Z,34.23
2022-12-15T02:08:47.887Z,29.90
2022-12-15T02:11:33.459Z,31.20
2022-12-15T02:14:03.630Z,30.57
2022-12-15T02:16:59.873Z,30.67
2022-12-15T02:19:51.870Z,29.63
2022-12-15T02:22:51.523Z,29.27
2022-12-15T02:25:50.648Z,31.60
2022-12-15T02:28:36.672Z,28.53
2022-12-15T02:31:32.136Z,29.03
2022-12-15T02:34:21.643Z,30.00
2022-12-15T02:36:54.211Z,28.20
2022-12-15T02:39:23.067Z,31.53
2022-12-15T02:41:52.871Z,29.30
2022-12-15T02:44:27.069Z,28.43
2022-12-15T02:47:09.924Z,30.50
2022-12-15T02:49:49.948Z,25.57
2022-12-15T02:52:27.765Z,29.60
2022-12-15T02:55:20.731Z,28.87
2022-12-15T02:57:55.886Z,28.47
2022-12-15T03:00:23.048Z,31.23
2022-12-15T03:02:55.322Z,28.47
2022-12-15T03:05:25.022Z,26.90
2022-12-15T03:07:54.276Z,31.13
2022-12-15T03:10:24.466Z,27.63
2022-12-15T03:12:52.531Z,29.13
2022-12-15T03:15:20.191Z,28.27
2022-12-15T03:17:47.508Z,28.33
2022-12-15T03:20:14.784Z,28.67
2022-12-15T03:22:41.950Z,27.80
2022-12-15T03:25:09.251Z,30.53
2022-12-15T03:27:37.732Z,29.33
2022-12-15T03:30:05.887Z,29.30
2022-12-15T03:32:33.087Z,28.70
2022-12-15T03:35:00.996Z,30.33
2022-12-15T03:37:28.572Z,29.10
2022-12-15T03:39:56.240Z,29.43
2022-12-15T03:42:42.116Z,29.67
2022-12-15T03:45:09.575Z,27.43
2022-12-15T03:47:41.739Z,31.60
2022-12-15T03:50:09.656Z,30.23
2022-12-15T03:52:37.113Z,28.63
2022-12-15T03:55:05.245Z,30.53
2022-12-15T03:57:32.435Z,30.37
2022-12-15T04:00:00.145Z,28.93
2022-12-15T04:02:27.552Z,30.77
2022-12-15T04:04:54.902Z,29.10
2022-12-15T04:07:22.054Z,32.33
2022-12-15T04:09:49.212Z,32.03
2022-12-15T04:12:16.385Z,34.50
2022-12-15T04:14:43.534Z,34.40
2022-12-15T04:17:11.263Z,34.57
2022-12-15T04:19:57.251Z,35.83
2022-12-15T04:22:24.656Z,35.40
2022-12-15T04:25:10.555Z,32.83
2022-12-15T04:28:01.342Z,35.80
2022-12-15T04:30:50.010Z,35.57
2022-12-15T04:33:36.461Z,35.00
2022-12-15T04:36:23.050Z,35.10
2022-12-15T04:39:09.090Z,35.20
2022-12-15T04:41:55.127Z,34.17
2022-12-15T04:44:41.113Z,35.43
2022-12-15T04:47:27.144Z,39.80
2022-12-15T04:50:13.091Z,35.97
2022-12-15T04:52:58.935Z,36.07
2022-12-15T04:55:44.920Z,38.03
2022-12-15T04:58:30.820Z,35.30
2022-12-15T05:01:16.889Z,36.77
2022-12-15T05:04:02.899Z,38.73
2022-12-15T05:06:48.719Z,37.23
2022-12-15T05:09:34.762Z,37.77
2022-12-15T05:12:20.667Z,39.90
2022-12-15T05:15:06.542Z,34.97
2022-12-15T05:17:52.434Z,40.43
2022-12-15T05:20:38.279Z,37.20
2022-12-15T05:23:24.160Z,39.13
2022-12-15T05:26:10.104Z,37.80
2022-12-15T05:28:56.034Z,35.23
2022-12-15T05:31:41.806Z,36.10
2022-12-15T05:34:09.181Z,37.50
2022-12-15T05:36:36.334Z,34.93
2022-12-15T05:39:04.006Z,38.67
2022-12-15T05:41:31.195Z,40.23
2022-12-15T05:43:58.370Z,36.60
2022-12-15T05:46:25.819Z,36.20
2022-12-15T05:48:53.067Z,36.40
2022-12-15T05:51:20.463Z,39.10
2022-12-15T05:53:47.711Z,35.37
2022-12-15T05:56:16.035Z,35.67
2022-12-15T05:58:45.374Z,36.57
2022-12-15T06:01:15.847Z,37.63
2022-12-15T06:03:43.338Z,35.10
2022-12-15T06:06:12.359Z,35.27
2022-12-15T06:08:41.829Z,36.07
2022-12-15T06:11:12.700Z,37.70
2022-12-15T06:13:40.510Z,37.30
2022-12-15T06:16:12.066Z,38.30
2022-12-15T06:18:41.830Z,36.80
2022-12-15T06:21:15.826Z,36.67
2022-12-15T06:23:43.279Z,39.67
2022-12-15T06:26:15.753Z,38.70
2022-12-15T06:28:43.111Z,41.30
2022-12-15T06:31:12.013Z,37.80
2022-12-15T06:33:39.559Z,37.70
2022-12-15T06:36:09.781Z,38.83
2022-12-15T06:38:37.341Z,39.90
2022-12-15T06:41:06.511Z,39.07
2022-12-15T06:43:34.842Z,39.13
2022-12-15T06:46:02.969Z,36.37
2022-12-15T06:48:30.785Z,35.60
2022-12-15T06:51:07.978Z,35.83
2022-12-15T06:53:38.918Z,37.17
2022-12-15T06:56:08.580Z,37.47
2022-12-15T06:58:35.723Z,36.40
2022-12-15T07:01:08.978Z,39.93
2022-12-15T07:03:36.875Z,39.70
2022-12-15T07:06:07.625Z,36.33
2022-12-15T07:08:41.115Z,40.63
2022-12-15T07:11:11.503Z,38.57
2022-12-15T07:13:39.753Z,39.87
2022-12-15T07:16:07.808Z,41.80
2022-12-15T07:18:35.110Z,39.00
2022-12-15T07:21:04.377Z,38.43
2022-12-15T07:23:52.823Z,39.00
2022-12-15T07:26:19.219Z,39.53
2022-12-15T07:28:46.390Z,36.83
2022-12-15T07:31:13.622Z,39.40
2022-12-15T07:33:40.822Z,38.50
2022-12-15T07:36:08.493Z,39.63
2022-12-15T07:38:35.831Z,39.43
2022-12-15T07:41:07.746Z,37.80
2022-12-15T07:43:36.003Z,39.00
2022-12-15T07:46:05.017Z,39.50
2022-12-15T07:48:33.238Z,42.07
2022-12-15T07:51:10.978Z,39.83
2022-12-15T07:53:40.042Z,41.63
2022-12-15T07:56:09.322Z,39.63
2022-12-15T07:58:37.980Z,37.60
2022-12-15T08:01:07.910Z,39.10
2022-12-15T08:03:36.684Z,38.87
2022-12-15T08:06:05.592Z,38.53
2022-12-15T08:08:34.098Z,37.83
2022-12-15T08:11:10.003Z,39.10
2022-12-15T08:16:25.820Z,39.23
2022-12-15T08:18:53.723Z,39.37
2022-12-15T08:21:20.949Z,38.87
2022-12-15T08:23:48.262Z,38.10
2022-12-15T08:26:17.932Z,38.53
2022-12-15T08:28:45.707Z,37.17
2022-12-15T08:31:19.488Z,44.80
2022-12-15T08:33:47.164Z,39.23
2022-12-15T08:36:17.691Z,41.60
2022-12-15T08:38:45.933Z,43.00
2022-12-15T08:41:21.130Z,41.07
2022-12-15T08:43:49.643Z,40.63
2022-12-15T08:46:19.943Z,40.07
2022-12-15T08:48:47.587Z,39.23
2022-12-15T08:51:15.922Z,42.37
2022-12-15T08:53:43.556Z,38.93
2022-12-15T08:56:13.447Z,39.40
2022-12-15T08:58:40.832Z,39.93
2022-12-15T09:01:22.997Z,39.53
2022-12-15T09:03:55.803Z,39.10
2022-12-15T09:06:24.594Z,39.60
2022-12-15T09:08:56.392Z,44.13
2022-12-15T09:11:25.150Z,39.27
2022-12-15T09:13:52.419Z,40.50
2022-12-15T09:16:21.222Z,43.40
2022-12-15T09:18:51.642Z,38.93
2022-12-15T09:21:23.798Z,41.60
2022-12-15T09:23:52.261Z,38.20
2022-12-15T09:26:21.850Z,41.20
2022-12-15T09:28:51.051Z,38.87
2022-12-15T09:31:28.507Z,41.37
2022-12-15T09:33:58.024Z,39.77
2022-12-15T09:36:26.377Z,39.63
2022-12-15T09:38:53.707Z,39.63
2022-12-15T09:41:27.135Z,42.20
2022-12-15T09:44:03.175Z,43.13
2022-12-15T09:46:51.627Z,40.13
2022-12-15T09:49:44.149Z,39.90
2022-12-15T09:52:17.997Z,40.07
2022-12-15T09:54:46.214Z,41.60
2022-12-15T09:57:31.865Z,41.43
2022-12-15T10:00:09.994Z,45.53
2022-12-15T10:03:04.703Z,43.57
2022-12-15T10:06:15.455Z,44.53
2022-12-15T10:08:59.951Z,42.03
2022-12-15T10:11:48.532Z,42.63
2022-12-15T10:14:41.305Z,42.07
2022-12-15T10:17:26.043Z,43.87
2022-12-15T10:20:26.255Z,45.20
2022-12-15T10:22:56.855Z,45.93
2022-12-15T10:25:30.399Z,47.17
2022-12-15T10:28:35.889Z,48.47
2022-12-15T10:31:25.645Z,47.27
2022-12-15T10:33:59.811Z,47.57
2022-12-15T10:36:27.289Z,47.67
2022-12-15T10:38:54.667Z,47.83
2022-12-15T10:41:28.479Z,47.77
2022-12-15T10:43:57.329Z,45.27
2022-12-15T10:46:27.293Z,47.63
2022-12-15T10:48:57.274Z,54.47
2022-12-15T10:51:31.425Z,48.67
2022-12-15T10:54:10.597Z,49.40
2022-12-15T10:56:50.255Z,46.17
2022-12-15T10:59:25.469Z,44.03
2022-12-15T11:01:53.060Z,44.27
2022-12-15T11:04:33.790Z,43.40
2022-12-15T11:07:04.175Z,43.77
2022-12-15T11:09:39.297Z,41.83
2022-12-15T11:12:39.684Z,44.13
2022-12-15T11:15:21.910Z,43.20
2022-12-15T11:18:21.131Z,46.27
2022-12-15T11:21:00.679Z,45.33
2022-12-15T11:23:37.515Z,48.87
2022-12-15T11:26:14.131Z,44.53
2022-12-15T11:28:58.962Z,47.80
2022-12-15T11:31:38.252Z,43.70
2022-12-15T11:34:12.905Z,45.90
2022-12-15T11:36:58.972Z,45.13
2022-12-15T11:39:38.124Z,40.87
2022-12-15T11:42:30.662Z,41.70
2022-12-15T11:45:23.716Z,46.60
2022-12-15T11:47:59.484Z,44.17
2022-12-15T11:50:32.221Z,41.17
2022-12-15T11:53:41.930Z,42.37
2022-12-15T11:56:33.771Z,46.03
2022-12-15T11:59:00.907Z,43.07
2022-12-15T12:02:00.765Z,44.20
2022-12-15T12:05:02.907Z,42.73
2022-12-15T12:07:49.109Z,45.57
2022-12-15T12:10:47.687Z,44.67
2022-12-15T12:13:33.795Z,45.93
2022-12-15T12:16:28.849Z,46.70
2022-12-15T12:19:04.454Z,47.40
2022-12-15T12:21:36.850Z,47.13
2022-12-15T12:24:23.546Z,50.70
2022-12-15T12:27:00.635Z,45.73
2022-12-15T12:29:36.460Z,50.60
2022-12-15T12:32:13.014Z,52.00
2022-12-15T12:35:30.627Z,46.47
2022-12-15T12:38:04.723Z,48.07
2022-12-15T12:40:41.124Z,45.37
2022-12-15T12:43:14.211Z,46.63
2022-12-15T12:45:50.512Z,47.23
2022-12-15T12:48:29.672Z,45.33
2022-12-15T12:51:23.783Z,48.10
2022-12-15T12:53:51.371Z,50.53
2022-12-15T12:56:43.529Z,50.33
2022-12-15T12:59:28.840Z,49.27
2022-12-15T13:02:21.736Z,49.00
2022-12-15T13:05:00.400Z,45.13
2022-12-15T13:07:32.923Z,50.73
2022-12-15T13:10:09.887Z,52.20
2022-12-15T13:12:51.871Z,52.20
2022-12-15T13:15:25.020Z,49.73
2022-12-15T13:17:56.942Z,50.33
2022-12-15T13:20:26.941Z,48.97
2022-12-15T13:22:55.268Z,54.37
2022-12-15T13:25:38.289Z,52.60
2022-12-15T13:28:20.351Z,49.30
2022-12-15T13:31:18.920Z,49.97
2022-12-15T13:33:49.179Z,47.77
2022-12-15T13:36:41.621Z,46.63
2022-12-15T13:39:14.406Z,47.30
2022-12-15T13:44:57.241Z,47.17
2022-12-15T13:47:29.915Z,50.97
2022-12-15T13:50:03.051Z,48.63
2022-12-15T13:53:17.812Z,50.67
2022-12-15T13:55:46.148Z,49.07
2022-12-15T13:58:20.650Z,48.90
2022-12-15T14:00:54.183Z,51.97
2022-12-15T14:03:21.836Z,51.43
2022-12-15T14:05:55.554Z,51.17
2022-12-15T14:08:25.750Z,48.03
2022-12-15T14:10:55.440Z,52.47
2022-12-15T14:13:40.620Z,45.43
2022-12-15T14:16:19.190Z,47.70
2022-12-15T14:19:05.055Z,48.87
2022-12-15T14:21:32.305Z,48.47
2022-12-15T14:26:47.968Z,49.90
2022-12-15T14:29:17.774Z,49.47
2022-12-15T14:31:51.449Z,50.33
2022-12-15T14:34:32.859Z,51.43
2022-12-15T14:37:03.773Z,49.80
2022-12-15T14:39:44.919Z,49.80
2022-12-15T14:42:22.174Z,50.33
2022-12-15T14:44:51.327Z,49.77
2022-12-15T14:47:21.437Z,49.07
2022-12-15T14:49:49.024Z,54.30
2022-12-15T14:52:29.691Z,56.63
2022-12-15T14:55:00.209Z,51.20
2022-12-15T14:57:45.535Z,49.70
2022-12-15T15:00:32.081Z,49.03
2022-12-15T15:03:18.273Z,47.60
2022-12-15T15:05:51.422Z,46.93
2022-12-15T15:08:34.681Z,50.07
2022-12-15T15:11:19.415Z,48.47
2022-12-15T15:13:47.030Z,47.97
2022-12-15T15:16:17.257Z,49.57
2022-12-15T15:18:48.600Z,49.70
2022-12-15T15:21:20.831Z,49.37
2022-12-15T15:24:09.699Z,48.93
2022-12-15T15:26:38.021Z,55.03
2022-12-15T15:29:30.839Z,49.00
2022-12-15T15:32:19.188Z,50.30
2022-12-15T15:34:47.248Z,51.03
2022-12-15T15:37:25.062Z,59.23
2022-12-15T15:39:54.328Z,51.93
2022-12-15T15:42:25.475Z,49.10
2022-12-15T15:44:57.574Z,50.40
2022-12-15T15:47:25.947Z,50.03
2022-12-15T15:49:55.478Z,51.00
2022-12-15T15:52:23.250Z,49.83
2022-12-15T15:54:51.705Z,54.03
2022-12-15T15:57:19.046Z,54.57
2022-12-15T15:59:46.909Z,52.53
2022-12-15T16:02:14.993Z,52.67
2022-12-15T16:04:43.724Z,52.87
2022-12-15T16:07:28.585Z,51.80
2022-12-15T16:09:56.738Z,53.80
2022-12-15T16:12:35.901Z,56.10
2022-12-15T16:15:06.043Z,57.83
2022-12-15T16:17:33.346Z,55.60
2022-12-15T16:20:00.505Z,57.67
2022-12-15T16:22:27.866Z,58.47
2022-12-15T16:24:56.303Z,58.67
2022-12-15T16:27:23.509Z,59.03
2022-12-15T16:29:50.661Z,61.33
2022-12-15T16:32:17.883Z,64.50
2022-12-15T16:34:45.055Z,60.50
2022-12-15T16:37:39.202Z,63.27
2022-12-15T16:40:30.034Z,61.40
2022-12-15T16:43:01.778Z,63.20
2022-12-15T16:45:31.133Z,63.60
2022-12-15T16:47:58.478Z,68.17
2022-12-15T16:50:31.450Z,61.70
2022-12-15T16:52:59.219Z,61.60
2022-12-15T16:55:35.075Z,67.37
2022-12-15T16:58:06.791Z,67.77
2022-12-15T17:00:35.612Z,68.77
2022-12-15T17:03:03.379Z,61.03
2022-12-15T17:05:36.101Z,62.63
2022-12-15T17:08:07.004Z,63.10
2022-12-15T17:10:34.327Z,61.73
2022-12-15T17:13:39.132Z,59.07
2022-12-15T17:16:13.473Z,59.17
2022-12-15T17:18:40.787Z,57.50
2022-12-15T17:21:18.524Z,57.10
2022-12-15T17:23:49.317Z,55.23
2022-12-15T17:26:29.092Z,58.00
2022-12-15T17:29:00.996Z,59.33
2022-12-15T17:31:34.771Z,52.07
2022-12-15T17:34:30.535Z,57.17
2022-12-15T17:36:59.695Z,62.23
2022-12-15T17:39:28.023Z,59.50
2022-12-15T17:42:00.479Z,58.00
2022-12-15T17:44:37.966Z,57.60
2022-12-15T17:47:08.128Z,64.70
2022-12-15T17:49:38.308Z,63.57
2022-12-15T17:52:14.634Z,67.20
2022-12-15T17:54:41.885Z,71.00
2022-12-15T17:57:12.250Z,70.70
2022-12-15T17:59:39.402Z,75.93
2022-12-15T18:02:08.401Z,76.10
2022-12-15T18:04:35.765Z,77.90
2022-12-15T18:07:02.986Z,73.37
2022-12-15T18:09:30.424Z,75.27
2022-12-15T18:11:57.873Z,69.70
2022-12-15T18:14:25.174Z,76.23
2022-12-15T18:16:52.520Z,91.67
2022-12-15T18:19:20.130Z,78.23
2022-12-15T18:21:47.403Z,75.67
2022-12-15T18:24:21.345Z,78.73
2022-12-15T18:26:48.885Z,80.50
2022-12-15T18:29:17.981Z,76.83
2022-12-15T18:31:49.283Z,84.57
2022-12-15T18:34:21.086Z,85.07
2022-12-15T18:36:48.714Z,89.07
2022-12-15T18:39:23.490Z,95.53
2022-12-15T18:41:52.403Z,95.43
2022-12-15T18:44:25.213Z,88.07
2022-12-15T18:46:55.140Z,85.70
2022-12-15T18:49:23.863Z,87.67
2022-12-15T18:51:51.091Z,84.93
2022-12-15T18:54:20.787Z,86.13
2022-12-15T18:56:48.703Z,87.67
2022-12-15T18:59:17.955Z,78.47
2022-12-15T19:01:49.251Z,75.50
2022-12-15T19:04:16.485Z,72.40
2022-12-15T19:06:44.871Z,86.73
2022-12-15T19:09:19.035Z,88.03
2022-12-15T19:12:06.818Z,87.97
2022-12-15T19:14:40.087Z,82.90
2022-12-15T19:17:29.304Z,88.43
2022-12-15T19:20:15.483Z,92.47
2022-12-15T19:22:44.180Z,89.97
2022-12-15T19:25:24.785Z,80.60
2022-12-15T19:27:59.171Z,80.20
2022-12-15T19:30:40.135Z,75.00
2022-12-15T19:33:10.590Z,83.57
2022-12-15T19:35:39.061Z,82.07
2022-12-15T19:38:07.332Z,80.60
2022-12-15T19:40:35.931Z,73.97
2022-12-15T19:43:04.219Z,74.70
2022-12-15T19:45:32.908Z,69.90
2022-12-15T19:48:00.344Z,74.63
2022-12-15T19:50:36.807Z,76.10
2022-12-15T19:53:24.113Z,73.20
2022-12-15T19:55:56.926Z,75.73
2022-12-15T19:58:35.878Z,73.87
2022-12-15T20:01:07.180Z,66.27
2022-12-15T20:03:35.803Z,67.17
2022-12-15T20:06:06.519Z,68.53
2022-12-15T20:08:35.596Z,61.23
2022-12-15T20:11:03.503Z,58.63
2022-12-15T20:13:31.146Z,62.07
2022-12-15T20:15:58.674Z,60.87
2022-12-15T20:18:25.840Z,63.20
2022-12-15T20:20:53.377Z,61.77
2022-12-15T20:23:29.282Z,59.50
2022-12-15T20:25:57.357Z,61.37
2022-12-15T20:28:29.714Z,54.33
2022-12-15T20:30:58.158Z,58.20
2022-12-15T20:33:25.456Z,58.03
2022-12-15T20:35:53.401Z,53.63
2022-12-15T20:38:32.364Z,58.70
2022-12-15T20:41:01.536Z,53.47
2022-12-15T20:43:31.685Z,54.10
2022-12-15T20:46:05.897Z,56.73
2022-12-15T20:48:35.070Z,57.30
2022-12-15T20:51:07.551Z,50.43
2022-12-15T20:53:37.726Z,49.60
2022-12-15T20:56:06.081Z,46.47
2022-12-15T20:58:40.892Z,45.07
2022-12-15T21:01:20.868Z,48.43
2022-12-15T21:03:50.424Z,45.00
2022-12-15T21:06:19.447Z,39.60
2022-12-15T21:08:46.739Z,43.83
2022-12-15T21:11:20.314Z,46.93
2022-12-15T21:13:49.192Z,52.97
2022-12-15T21:16:21.493Z,46.87
2022-12-15T21:21:40.690Z,41.43
2022-12-15T21:24:19.526Z,37.37
2022-12-15T21:26:46.951Z,34.90
2022-12-15T21:29:20.504Z,40.10
2022-12-15T21:31:48.339Z,33.83
2022-12-15T21:34:15.635Z,36.67
2022-12-15T21:36:45.430Z,38.40
2022-12-15T21:39:21.758Z,33.20
2022-12-15T21:41:49.077Z,31.30
2022-12-15T21:44:18.279Z,37.20
2022-12-15T21:46:45.656Z,36.33
2022-12-15T21:49:18.466Z,35.87
2022-12-15T21:51:49.466Z,39.53
2022-12-15T21:54:27.415Z,45.33
2022-12-15T21:57:01.191Z,52.23
2022-12-15T21:59:31.176Z,38.87
2022-12-15T22:02:00.816Z,36.77
2022-12-15T22:04:37.205Z,38.03
2022-12-15T22:07:06.257Z,38.00
2022-12-15T22:09:33.558Z,33.93
2022-12-15T22:12:01.222Z,34.53
2022-12-15T22:14:31.618Z,35.07
2022-12-15T22:17:00.106Z,38.87
2022-12-15T22:19:27.645Z,33.13
2022-12-15T22:21:54.835Z,36.00
2022-12-15T22:24:22.278Z,35.03
2022-12-15T22:26:49.590Z,33.27
2022-12-15T22:29:20.280Z,33.07
2022-12-15T22:31:49.438Z,33.77
2022-12-15T22:34:19.556Z,33.17
2022-12-15T22:36:46.983Z,34.47
2022-12-15T22:39:14.866Z,34.50
2022-12-15T22:41:45.113Z,32.07
2022-12-15T22:44:25.608Z,29.73
2022-12-15T22:46:55.680Z,31.20
2022-12-15T22:49:29.207Z,34.77
2022-12-15T22:51:56.422Z,32.47
2022-12-15T22:54:25.980Z,29.70
2022-12-15T22:57:03.828Z,35.87
2022-12-15T22:59:41.360Z,30.03
2022-12-15T23:02:09.079Z,27.40
2022-12-15T23:04:36.550Z,26.90
2022-12-15T23:07:07.350Z,26.53
2022-12-15T23:09:34.526Z,26.53
2022-12-15T23:12:01.824Z,27.50
2022-12-15T23:14:47.722Z,26.47
2022-12-15T23:17:14.894Z,27.80
2022-12-15T23:19:45.889Z,28.93
2022-12-15T23:22:13.717Z,28.73
2022-12-15T23:24:41.237Z,29.13
2022-12-15T23:27:11.991Z,26.13
2022-12-15T23:29:39.252Z,23.97
2022-12-15T23:32:06.430Z,26.70
2022-12-15T23:34:33.635Z,25.80
2022-12-15T23:37:00.826Z,25.87
2022-12-15T23:39:28.206Z,26.17
2022-12-15T23:41:55.424Z,26.43
2022-12-15T23:44:22.852Z,22.97
2022-12-15T23:46:50.044Z,22.07
2022-12-15T23:49:17.499Z,25.67
2022-12-15T23:51:44.670Z,23.60
2022-12-15T23:54:11.854Z,23.87
2022-12-15T23:56:40.113Z,23.23
2022-12-15T23:59:07.533Z,24.17
